createdAt,value
2023-03-18T00:00:38.350Z,6.83
2023-03-18T00:01:28.327Z,6.87
2023-03-18T00:02:18.377Z,6.87
2023-03-18T00:03:08.317Z,6.82
2023-03-18T00:03:58.342Z,6.82
2023-03-18T00:04:48.294Z,6.82
2023-03-18T00:05:38.294Z,6.79
2023-03-18T00:06:28.295Z,6.78
2023-03-18T00:07:18.292Z,6.76
2023-03-18T00:08:08.273Z,6.75
2023-03-18T00:08:58.257Z,6.73
2023-03-18T00:09:48.246Z,6.75
2023-03-18T00:10:38.254Z,6.73
2023-03-18T00:11:28.217Z,6.72
2023-03-18T00:12:18.224Z,6.72
2023-03-18T00:13:08.214Z,6.73
2023-03-18T00:13:58.212Z,6.73
2023-03-18T00:14:48.201Z,6.71
2023-03-18T00:15:38.251Z,6.69
2023-03-18T00:16:28.263Z,6.71
2023-03-18T00:17:18.150Z,6.71
2023-03-18T00:18:08.159Z,6.71
2023-03-18T00:18:58.142Z,6.72
2023-03-18T00:19:48.125Z,6.73
2023-03-18T00:20:38.126Z,6.72
2023-03-18T00:21:28.099Z,6.73
2023-03-18T00:22:18.113Z,6.73
2023-03-18T00:23:08.090Z,6.75
2023-03-18T00:23:58.080Z,6.75
2023-03-18T00:24:48.095Z,6.76
2023-03-18T00:25:38.057Z,6.78
2023-03-18T00:26:28.070Z,6.82
2023-03-18T00:27:18.068Z,6.86
2023-03-18T00:28:08.062Z,6.89
2023-03-18T00:28:58.032Z,6.93
2023-03-18T00:29:48.027Z,7.01
2023-03-18T00:30:38.028Z,7.08
2023-03-18T00:31:28.062Z,7.18
2023-03-18T00:32:18.001Z,7.26
2023-03-18T00:33:08.090Z,7.30
2023-03-18T00:33:57.988Z,7.34
2023-03-18T00:34:47.955Z,7.39
2023-03-18T00:35:38.048Z,7.41
2023-03-18T00:36:27.971Z,7.47
2023-03-18T00:37:17.937Z,7.52
2023-03-18T00:38:07.939Z,7.57
2023-03-18T00:38:58.092Z,7.66
2023-03-18T00:39:47.927Z,7.70
2023-03-18T00:40:37.900Z,7.82
2023-03-18T00:41:27.919Z,7.88
2023-03-18T00:42:17.897Z,7.94
2023-03-18T00:43:07.882Z,8.00
2023-03-18T00:43:57.867Z,8.04
2023-03-18T00:44:47.854Z,8.09
2023-03-18T00:45:37.850Z,8.12
2023-03-18T00:46:27.970Z,8.18
2023-03-18T00:47:17.830Z,8.22
2023-03-18T00:48:07.827Z,8.27
2023-03-18T00:48:57.955Z,8.34
2023-03-18T00:49:47.790Z,8.39
2023-03-18T00:50:37.782Z,8.49
2023-03-18T00:51:27.778Z,8.57
2023-03-18T00:52:17.785Z,8.65
2023-03-18T00:53:07.765Z,8.71
2023-03-18T00:53:57.749Z,8.78
2023-03-18T00:54:47.736Z,8.80
2023-03-18T00:55:37.741Z,8.82
2023-03-18T00:56:27.751Z,8.89
2023-03-18T00:57:17.731Z,8.96
2023-03-18T00:58:07.718Z,9.03
2023-03-18T00:58:57.684Z,9.12
2023-03-18T00:59:47.713Z,9.16
2023-03-18T01:00:37.712Z,9.20
2023-03-18T01:01:27.798Z,9.34
2023-03-18T01:02:17.685Z,9.42
2023-03-18T01:03:07.653Z,9.49
2023-03-18T01:03:57.655Z,9.50
2023-03-18T01:04:47.624Z,9.53
2023-03-18T01:05:37.625Z,9.55
2023-03-18T01:06:27.619Z,9.56
2023-03-18T01:07:17.611Z,9.56
2023-03-18T01:08:07.595Z,9.53
2023-03-18T01:08:57.598Z,9.48
2023-03-18T01:09:47.593Z,9.42
2023-03-18T01:10:37.582Z,9.38
2023-03-18T01:11:27.579Z,9.40
2023-03-18T01:12:17.547Z,9.41
2023-03-18T01:13:07.536Z,9.40
2023-03-18T01:13:57.534Z,9.37
2023-03-18T01:14:47.539Z,9.35
2023-03-18T01:15:37.507Z,9.34
2023-03-18T01:16:27.565Z,9.35
2023-03-18T01:17:17.505Z,9.35
2023-03-18T01:18:07.492Z,9.34
2023-03-18T01:18:57.499Z,9.34
2023-03-18T01:19:47.467Z,9.34
2023-03-18T01:20:37.453Z,9.32
2023-03-18T01:21:27.456Z,9.31
2023-03-18T01:22:17.432Z,9.31
2023-03-18T01:23:07.443Z,9.31
2023-03-18T01:23:57.411Z,9.30
2023-03-18T01:24:47.432Z,9.32
2023-03-18T01:25:37.416Z,9.32
2023-03-18T01:26:27.406Z,9.32
2023-03-18T01:27:17.393Z,9.35
2023-03-18T01:28:07.375Z,9.35
2023-03-18T01:28:57.377Z,9.37
2023-03-18T01:29:47.353Z,9.50
2023-03-18T01:30:37.364Z,9.89
2023-03-18T01:31:27.377Z,10.11
2023-03-18T01:32:17.349Z,10.20
2023-03-18T01:33:07.388Z,10.25
2023-03-18T01:33:57.312Z,10.28
2023-03-18T01:34:47.310Z,10.24
2023-03-18T01:35:37.323Z,10.18
2023-03-18T01:36:27.300Z,10.18
2023-03-18T01:37:17.272Z,10.18
2023-03-18T01:38:07.265Z,10.22
2023-03-18T01:38:57.240Z,10.17
2023-03-18T01:39:47.238Z,10.14
2023-03-18T01:40:37.248Z,10.13
2023-03-18T01:41:27.218Z,10.09
2023-03-18T01:42:17.216Z,10.02
2023-03-18T01:43:07.236Z,9.96
2023-03-18T01:43:57.190Z,9.89
2023-03-18T01:44:47.191Z,9.96
2023-03-18T01:45:37.228Z,10.10
2023-03-18T01:46:27.184Z,10.26
2023-03-18T01:47:17.146Z,10.39
2023-03-18T01:48:07.156Z,10.55
2023-03-18T01:48:57.143Z,10.62
2023-03-18T01:49:47.129Z,10.65
2023-03-18T01:50:37.122Z,10.81
2023-03-18T01:51:27.142Z,10.93
2023-03-18T01:52:17.105Z,11.02
2023-03-18T01:53:07.089Z,11.03
2023-03-18T01:53:57.087Z,11.06
2023-03-18T01:54:47.094Z,11.21
2023-03-18T01:55:37.061Z,11.26
2023-03-18T01:56:27.048Z,11.24
2023-03-18T01:57:17.056Z,11.26
2023-03-18T01:58:07.042Z,11.24
2023-03-18T01:58:57.023Z,11.20
2023-03-18T01:59:47.033Z,11.13
2023-03-18T02:00:37.092Z,11.23
2023-03-18T02:01:27.108Z,11.24
2023-03-18T02:02:16.991Z,11.24
2023-03-18T02:03:06.992Z,11.23
2023-03-18T02:03:56.975Z,11.16
2023-03-18T02:04:46.954Z,11.12
2023-03-18T02:05:36.965Z,11.09
2023-03-18T02:06:26.944Z,11.06
2023-03-18T02:07:16.928Z,11.06
2023-03-18T02:08:06.920Z,11.05
2023-03-18T02:08:56.923Z,11.02
2023-03-18T02:09:46.912Z,10.99
2023-03-18T02:10:36.894Z,10.98
2023-03-18T02:11:32.086Z,10.90
2023-03-18T02:12:16.874Z,10.86
2023-03-18T02:13:06.875Z,10.87
2023-03-18T02:13:56.856Z,10.88
2023-03-18T02:14:46.857Z,10.87
2023-03-18T02:15:36.841Z,10.86
2023-03-18T02:16:26.860Z,10.83
2023-03-18T02:17:16.833Z,10.80
2023-03-18T02:18:06.837Z,10.75
2023-03-18T02:18:56.836Z,10.69
2023-03-18T02:19:46.795Z,10.65
2023-03-18T02:20:36.793Z,10.60
2023-03-18T02:21:26.840Z,10.55
2023-03-18T02:22:16.765Z,10.43
2023-03-18T02:23:06.755Z,10.36
2023-03-18T02:23:56.754Z,10.34
2023-03-18T02:24:46.746Z,10.32
2023-03-18T02:25:36.723Z,10.28
2023-03-18T02:26:26.713Z,10.25
2023-03-18T02:27:16.722Z,10.26
2023-03-18T02:28:06.692Z,10.24
2023-03-18T02:28:56.716Z,10.20
2023-03-18T02:29:46.691Z,10.17
2023-03-18T02:30:36.712Z,10.16
2023-03-18T02:31:26.677Z,10.13
2023-03-18T02:32:16.663Z,10.10
2023-03-18T02:33:06.670Z,9.99
2023-03-18T02:33:56.648Z,9.92
2023-03-18T02:34:46.641Z,9.85
2023-03-18T02:35:36.652Z,9.81
2023-03-18T02:36:26.610Z,9.78
2023-03-18T02:37:16.612Z,9.73
2023-03-18T02:38:06.591Z,9.68
2023-03-18T02:38:56.591Z,9.67
2023-03-18T02:39:46.593Z,9.60
2023-03-18T02:40:36.591Z,9.59
2023-03-18T02:41:26.549Z,9.56
2023-03-18T02:42:16.559Z,9.52
2023-03-18T02:43:06.529Z,9.45
2023-03-18T02:43:56.530Z,9.41
2023-03-18T02:44:46.533Z,9.40
2023-03-18T02:45:36.524Z,9.40
2023-03-18T02:46:26.530Z,9.35
2023-03-18T02:47:16.490Z,9.34
2023-03-18T02:48:06.489Z,9.31
2023-03-18T02:48:56.491Z,9.27
2023-03-18T02:49:46.462Z,9.22
2023-03-18T02:50:36.461Z,9.20
2023-03-18T02:51:26.451Z,9.17
2023-03-18T02:52:16.460Z,9.17
2023-03-18T02:53:06.439Z,9.12
2023-03-18T02:53:56.425Z,9.04
2023-03-18T02:54:46.417Z,8.98
2023-03-18T02:55:36.391Z,8.89
2023-03-18T02:56:26.392Z,8.75
2023-03-18T02:57:16.401Z,8.68
2023-03-18T02:58:06.361Z,8.67
2023-03-18T02:58:56.361Z,8.65
2023-03-18T02:59:46.371Z,8.64
2023-03-18T03:00:36.349Z,8.64
2023-03-18T03:01:26.363Z,8.63
2023-03-18T03:02:16.374Z,8.58
2023-03-18T03:03:06.474Z,8.52
2023-03-18T03:03:56.334Z,8.49
2023-03-18T03:04:46.301Z,8.49
2023-03-18T03:05:36.313Z,8.50
2023-03-18T03:06:26.289Z,8.47
2023-03-18T03:07:16.269Z,8.40
2023-03-18T03:08:06.271Z,8.40
2023-03-18T03:08:56.264Z,8.37
2023-03-18T03:09:46.245Z,8.37
2023-03-18T03:10:36.265Z,8.37
2023-03-18T03:11:26.218Z,8.36
2023-03-18T03:12:16.214Z,8.29
2023-03-18T03:13:06.202Z,8.27
2023-03-18T03:13:56.190Z,8.25
2023-03-18T03:14:46.179Z,8.21
2023-03-18T03:15:36.261Z,8.18
2023-03-18T03:16:26.166Z,8.17
2023-03-18T03:17:16.158Z,8.18
2023-03-18T03:18:06.163Z,8.14
2023-03-18T03:18:56.141Z,8.17
2023-03-18T03:19:46.147Z,8.14
2023-03-18T03:20:36.144Z,8.13
2023-03-18T03:21:26.129Z,8.09
2023-03-18T03:22:16.101Z,8.07
2023-03-18T03:23:06.173Z,8.06
2023-03-18T03:23:56.102Z,8.04
2023-03-18T03:24:46.077Z,8.00
2023-03-18T03:25:36.085Z,7.88
2023-03-18T03:26:26.066Z,7.84
2023-03-18T03:27:16.053Z,7.76
2023-03-18T03:28:06.054Z,7.67
2023-03-18T03:28:56.028Z,7.57
2023-03-18T03:29:46.019Z,7.55
2023-03-18T03:30:36.037Z,7.51
2023-03-18T03:31:26.082Z,7.39
2023-03-18T03:32:16.009Z,7.33
2023-03-18T03:33:06.028Z,7.29
2023-03-18T03:33:55.979Z,7.30
2023-03-18T03:34:45.978Z,7.30
2023-03-18T03:35:36.010Z,7.27
2023-03-18T03:36:25.944Z,7.26
2023-03-18T03:37:15.965Z,7.26
2023-03-18T03:38:05.941Z,7.26
2023-03-18T03:38:55.950Z,7.23
2023-03-18T03:39:45.909Z,7.21
2023-03-18T03:40:35.905Z,7.21
2023-03-18T03:41:25.905Z,7.23
2023-03-18T03:42:15.903Z,7.24
2023-03-18T03:43:05.875Z,7.26
2023-03-18T03:43:55.883Z,7.26
2023-03-18T03:44:45.899Z,7.27
2023-03-18T03:45:35.864Z,7.27
2023-03-18T03:46:25.859Z,7.27
2023-03-18T03:47:15.841Z,7.27
2023-03-18T03:48:05.814Z,7.27
2023-03-18T03:48:55.806Z,7.29
2023-03-18T03:49:45.816Z,7.27
2023-03-18T03:50:35.807Z,7.24
2023-03-18T03:51:25.777Z,7.24
2023-03-18T03:52:15.786Z,7.24
2023-03-18T03:53:05.787Z,7.24
2023-03-18T03:53:55.766Z,7.23
2023-03-18T03:54:45.763Z,7.19
2023-03-18T03:55:35.734Z,7.18
2023-03-18T03:56:25.725Z,7.16
2023-03-18T03:57:15.726Z,7.15
2023-03-18T03:58:05.706Z,7.14
2023-03-18T03:58:55.717Z,7.09
2023-03-18T03:59:45.731Z,7.04
2023-03-18T04:00:35.714Z,7.00
2023-03-18T04:01:25.656Z,6.99
2023-03-18T04:02:15.710Z,6.97
2023-03-18T04:03:05.641Z,6.94
2023-03-18T04:03:55.700Z,6.96
2023-03-18T04:04:45.645Z,6.96
2023-03-18T04:05:35.624Z,6.97
2023-03-18T04:06:25.604Z,6.97
2023-03-18T04:07:15.606Z,6.96
2023-03-18T04:08:05.612Z,6.91
2023-03-18T04:08:55.585Z,6.89
2023-03-18T04:09:45.600Z,6.83
2023-03-18T04:10:35.578Z,6.83
2023-03-18T04:11:25.553Z,6.81
2023-03-18T04:12:15.561Z,6.78
2023-03-18T04:13:05.564Z,6.76
2023-03-18T04:13:55.530Z,6.75
2023-03-18T04:14:45.543Z,6.75
2023-03-18T04:15:35.520Z,6.72
2023-03-18T04:16:25.544Z,6.73
2023-03-18T04:17:15.494Z,6.72
2023-03-18T04:18:05.517Z,6.72
2023-03-18T04:18:55.478Z,6.69
2023-03-18T04:19:45.501Z,6.68
2023-03-18T04:20:35.476Z,6.65
2023-03-18T04:21:25.444Z,6.58
2023-03-18T04:22:15.433Z,6.54
2023-03-18T04:23:05.427Z,6.51
2023-03-18T04:23:55.423Z,6.45
2023-03-18T04:24:45.452Z,6.40
2023-03-18T04:25:35.447Z,6.33
2023-03-18T04:26:25.380Z,6.28
2023-03-18T04:27:15.415Z,6.21
2023-03-18T04:28:05.391Z,6.20
2023-03-18T04:28:55.358Z,6.19
2023-03-18T04:29:45.377Z,6.20
2023-03-18T04:30:35.347Z,6.20
2023-03-18T04:31:25.366Z,6.21
2023-03-18T04:32:15.334Z,6.24
2023-03-18T04:33:05.355Z,6.21
2023-03-18T04:33:55.314Z,6.24
2023-03-18T04:34:45.318Z,6.21
2023-03-18T04:35:35.329Z,6.16
2023-03-18T04:36:25.279Z,6.13
2023-03-18T04:37:15.266Z,6.11
2023-03-18T04:38:05.269Z,6.10
2023-03-18T04:38:55.276Z,6.05
2023-03-18T04:39:45.226Z,6.05
2023-03-18T04:40:35.347Z,6.06
2023-03-18T04:41:25.231Z,6.05
2023-03-18T04:42:15.211Z,6.03
2023-03-18T04:43:05.202Z,6.03
2023-03-18T04:43:55.193Z,6.03
2023-03-18T04:44:45.177Z,6.05
2023-03-18T04:45:35.194Z,6.05
2023-03-18T04:46:25.240Z,5.99
2023-03-18T04:47:15.163Z,5.98
2023-03-18T04:48:05.173Z,5.96
2023-03-18T04:48:55.144Z,5.95
2023-03-18T04:49:45.130Z,5.96
2023-03-18T04:50:35.148Z,5.95
2023-03-18T04:51:25.130Z,5.96
2023-03-18T04:52:15.102Z,5.96
2023-03-18T04:53:05.104Z,5.93
2023-03-18T04:53:55.102Z,5.92
2023-03-18T04:54:45.069Z,5.87
2023-03-18T04:55:35.198Z,5.87
2023-03-18T04:56:25.074Z,5.85
2023-03-18T04:57:15.051Z,5.83
2023-03-18T04:58:05.070Z,5.78
2023-03-18T04:58:55.031Z,5.74
2023-03-18T04:59:45.009Z,5.73
2023-03-18T05:00:35.085Z,5.70
2023-03-18T05:01:25.020Z,5.66
2023-03-18T05:02:14.990Z,5.65
2023-03-18T05:03:04.982Z,5.62
2023-03-18T05:03:54.988Z,5.59
2023-03-18T05:04:44.993Z,5.56
2023-03-18T05:05:37.327Z,5.52
2023-03-18T05:06:24.949Z,5.51
2023-03-18T05:07:14.949Z,5.47
2023-03-18T05:08:04.950Z,5.44
2023-03-18T05:08:54.914Z,5.42
2023-03-18T05:09:44.911Z,5.41
2023-03-18T05:10:34.900Z,5.41
2023-03-18T05:11:24.895Z,5.38
2023-03-18T05:12:14.954Z,5.35
2023-03-18T05:13:04.888Z,5.32
2023-03-18T05:13:54.876Z,5.33
2023-03-18T05:14:44.865Z,5.33
2023-03-18T05:15:34.849Z,5.30
2023-03-18T05:16:24.921Z,5.32
2023-03-18T05:17:14.827Z,5.30
2023-03-18T05:18:04.842Z,5.30
2023-03-18T05:18:54.831Z,5.29
2023-03-18T05:19:44.810Z,5.30
2023-03-18T05:20:34.800Z,5.29
2023-03-18T05:21:24.777Z,5.29
2023-03-18T05:22:14.790Z,5.27
2023-03-18T05:23:04.768Z,5.26
2023-03-18T05:23:54.787Z,5.27
2023-03-18T05:24:44.747Z,5.24
2023-03-18T05:25:34.740Z,5.24
2023-03-18T05:26:24.733Z,5.22
2023-03-18T05:27:14.750Z,5.19
2023-03-18T05:28:04.709Z,5.15
2023-03-18T05:28:54.708Z,5.14
2023-03-18T05:29:44.707Z,5.09
2023-03-18T05:30:34.695Z,5.06
2023-03-18T05:31:24.730Z,5.04
2023-03-18T05:32:14.692Z,5.02
2023-03-18T05:33:04.690Z,4.97
2023-03-18T05:33:54.657Z,4.96
2023-03-18T05:34:44.624Z,4.94
2023-03-18T05:35:34.913Z,4.93
2023-03-18T05:36:24.659Z,4.93
2023-03-18T05:37:14.622Z,4.93
2023-03-18T05:38:04.605Z,4.91
2023-03-18T05:38:54.594Z,4.90
2023-03-18T05:39:45.113Z,4.91
2023-03-18T05:40:34.603Z,4.93
2023-03-18T05:41:24.571Z,4.96
2023-03-18T05:42:14.562Z,4.96
2023-03-18T05:43:04.531Z,4.97
2023-03-18T05:43:54.551Z,4.99
2023-03-18T05:44:44.540Z,4.99
2023-03-18T05:45:35.806Z,4.99
2023-03-18T05:46:24.549Z,4.99
2023-03-18T05:47:14.496Z,4.96
2023-03-18T05:48:04.479Z,4.94
2023-03-18T05:48:54.509Z,4.94
2023-03-18T05:49:44.469Z,4.91
2023-03-18T05:50:34.452Z,4.91
2023-03-18T05:51:24.456Z,4.88
2023-03-18T05:52:14.449Z,4.90
2023-03-18T05:53:04.421Z,4.88
2023-03-18T05:53:54.450Z,4.87
2023-03-18T05:54:44.420Z,4.86
2023-03-18T05:55:34.555Z,4.83
2023-03-18T05:56:24.383Z,4.83
2023-03-18T05:57:14.401Z,4.80
2023-03-18T05:58:04.386Z,4.77
2023-03-18T05:58:54.392Z,4.74
2023-03-18T05:59:44.369Z,4.75
2023-03-18T06:00:34.350Z,4.72
2023-03-18T06:01:25.864Z,4.67
2023-03-18T06:02:14.381Z,4.57
2023-03-18T06:03:04.398Z,4.50
2023-03-18T06:03:54.320Z,4.43
2023-03-18T06:04:44.302Z,4.36
2023-03-18T06:05:34.809Z,4.34
2023-03-18T06:06:24.294Z,4.32
2023-03-18T06:07:14.296Z,4.31
2023-03-18T06:08:04.295Z,4.32
2023-03-18T06:08:54.271Z,4.32
2023-03-18T06:09:44.250Z,4.32
2023-03-18T06:10:34.231Z,4.34
2023-03-18T06:11:24.255Z,4.35
2023-03-18T06:12:14.232Z,4.34
2023-03-18T06:13:04.230Z,4.36
2023-03-18T06:13:54.200Z,4.36
2023-03-18T06:14:44.196Z,4.36
2023-03-18T06:15:34.310Z,4.36
2023-03-18T06:16:24.244Z,4.35
2023-03-18T06:17:14.206Z,4.35
2023-03-18T06:18:04.207Z,4.35
2023-03-18T06:18:54.149Z,4.35
2023-03-18T06:19:44.140Z,4.34
2023-03-18T06:20:34.130Z,4.34
2023-03-18T06:21:24.125Z,4.32
2023-03-18T06:22:14.125Z,4.34
2023-03-18T06:23:04.097Z,4.34
2023-03-18T06:23:54.102Z,4.34
2023-03-18T06:24:44.126Z,4.34
2023-03-18T06:25:34.451Z,4.35
2023-03-18T06:26:24.065Z,4.36
2023-03-18T06:27:14.098Z,4.35
2023-03-18T06:28:04.067Z,4.35
2023-03-18T06:28:54.071Z,4.36
2023-03-18T06:29:44.043Z,4.35
2023-03-18T06:30:34.046Z,4.35
2023-03-18T06:31:24.194Z,4.35
2023-03-18T06:32:14.029Z,4.35
2023-03-18T06:33:04.044Z,4.38
2023-03-18T06:33:53.999Z,4.38
2023-03-18T06:34:43.977Z,4.38
2023-03-18T06:35:34.321Z,4.39
2023-03-18T06:36:23.975Z,4.42
2023-03-18T06:37:13.967Z,4.42
2023-03-18T06:38:03.963Z,4.44
2023-03-18T06:38:53.928Z,4.44
2023-03-18T06:39:43.926Z,4.46
2023-03-18T06:40:33.917Z,4.47
2023-03-18T06:41:23.921Z,4.50
2023-03-18T06:42:13.901Z,4.51
2023-03-18T06:43:03.905Z,4.53
2023-03-18T06:43:53.917Z,4.54
2023-03-18T06:44:43.875Z,4.56
2023-03-18T06:45:34.186Z,4.54
2023-03-18T06:46:23.928Z,4.56
2023-03-18T06:47:13.837Z,4.56
2023-03-18T06:48:03.817Z,4.57
2023-03-18T06:48:53.840Z,4.57
2023-03-18T06:49:43.827Z,4.57
2023-03-18T06:50:33.806Z,4.59
2023-03-18T06:51:23.819Z,4.57
2023-03-18T06:52:13.776Z,4.61
2023-03-18T06:53:03.785Z,4.59
2023-03-18T06:53:53.775Z,4.61
2023-03-18T06:54:43.768Z,4.61
2023-03-18T06:55:34.142Z,4.62
2023-03-18T06:56:23.760Z,4.65
2023-03-18T06:57:13.768Z,4.67
2023-03-18T06:58:03.732Z,4.68
2023-03-18T06:58:53.712Z,4.68
2023-03-18T06:59:43.720Z,4.69
2023-03-18T07:00:33.727Z,4.69
2023-03-18T07:01:23.728Z,4.69
2023-03-18T07:02:13.705Z,4.71
2023-03-18T07:03:03.665Z,4.72
2023-03-18T07:03:53.672Z,4.75
2023-03-18T07:04:43.694Z,4.79
2023-03-18T07:05:34.082Z,4.79
2023-03-18T07:06:23.623Z,4.79
2023-03-18T07:07:13.616Z,4.80
2023-03-18T07:08:03.621Z,4.80
2023-03-18T07:08:53.604Z,4.83
2023-03-18T07:09:43.602Z,4.84
2023-03-18T07:10:33.591Z,4.86
2023-03-18T07:11:23.590Z,4.86
2023-03-18T07:12:13.558Z,4.87
2023-03-18T07:13:03.569Z,4.87
2023-03-18T07:13:53.541Z,4.90
2023-03-18T07:14:43.533Z,4.91
2023-03-18T07:15:33.650Z,4.93
2023-03-18T07:16:23.573Z,4.93
2023-03-18T07:17:13.510Z,4.96
2023-03-18T07:18:03.512Z,4.96
2023-03-18T07:18:53.502Z,4.97
2023-03-18T07:19:43.498Z,4.96
2023-03-18T07:20:33.515Z,5.01
2023-03-18T07:21:23.548Z,5.05
2023-03-18T07:22:13.484Z,5.06
2023-03-18T07:23:03.453Z,5.08
2023-03-18T07:23:53.437Z,5.11
2023-03-18T07:24:43.449Z,5.12
2023-03-18T07:25:33.776Z,5.14
2023-03-18T07:26:23.418Z,5.15
2023-03-18T07:27:13.416Z,5.17
2023-03-18T07:28:03.387Z,5.19
2023-03-18T07:28:53.403Z,5.19
2023-03-18T07:29:43.373Z,5.17
2023-03-18T07:30:33.383Z,5.20
2023-03-18T07:31:23.418Z,5.20
2023-03-18T07:32:13.345Z,5.23
2023-03-18T07:33:03.358Z,5.24
2023-03-18T07:33:53.355Z,5.29
2023-03-18T07:34:43.323Z,5.32
2023-03-18T07:35:33.567Z,5.35
2023-03-18T07:36:23.314Z,5.41
2023-03-18T07:37:13.283Z,5.47
2023-03-18T07:38:03.302Z,5.52
2023-03-18T07:38:53.276Z,5.58
2023-03-18T07:39:43.266Z,5.63
2023-03-18T07:40:33.265Z,5.65
2023-03-18T07:41:23.237Z,5.66
2023-03-18T07:42:13.347Z,5.66
2023-03-18T07:43:03.237Z,5.66
2023-03-18T07:43:53.210Z,5.67
2023-03-18T07:44:43.209Z,5.77
2023-03-18T07:45:33.542Z,5.83
2023-03-18T07:46:23.275Z,5.92
2023-03-18T07:47:13.282Z,5.99
2023-03-18T07:48:03.192Z,6.06
2023-03-18T07:48:53.162Z,6.11
2023-03-18T07:49:43.193Z,6.13
2023-03-18T07:50:33.152Z,6.17
2023-03-18T07:51:23.156Z,6.17
2023-03-18T07:52:13.119Z,6.16
2023-03-18T07:53:03.116Z,6.16
2023-03-18T07:53:53.113Z,6.20
2023-03-18T07:54:43.108Z,6.25
2023-03-18T07:55:33.468Z,6.30
2023-03-18T07:56:23.092Z,6.35
2023-03-18T07:57:13.123Z,6.39
2023-03-18T07:58:03.063Z,6.43
2023-03-18T07:58:53.059Z,6.48
2023-03-18T07:59:43.047Z,6.50
2023-03-18T08:00:33.033Z,6.53
2023-03-18T08:01:23.031Z,6.57
2023-03-18T08:02:13.015Z,6.57
2023-03-18T08:03:03.009Z,6.60
2023-03-18T08:03:53.021Z,6.61
2023-03-18T08:04:43.052Z,6.63
2023-03-18T08:05:33.203Z,6.65
2023-03-18T08:06:22.973Z,6.69
2023-03-18T08:07:12.950Z,6.72
2023-03-18T08:08:02.969Z,6.75
2023-03-18T08:08:52.955Z,6.81
2023-03-18T08:09:42.931Z,6.87
2023-03-18T08:10:32.938Z,6.89
2023-03-18T08:11:22.910Z,6.90
2023-03-18T08:12:12.915Z,6.96
2023-03-18T08:13:02.902Z,7.01
2023-03-18T08:13:53.087Z,7.08
2023-03-18T08:14:42.879Z,7.11
2023-03-18T08:15:33.191Z,7.16
2023-03-18T08:16:22.914Z,7.23
2023-03-18T08:17:12.839Z,7.27
2023-03-18T08:18:02.830Z,7.30
2023-03-18T08:18:52.818Z,7.33
2023-03-18T08:19:42.845Z,7.37
2023-03-18T08:20:32.795Z,7.42
2023-03-18T08:21:22.830Z,7.45
2023-03-18T08:22:12.835Z,7.55
2023-03-18T08:23:02.815Z,7.62
2023-03-18T08:23:52.760Z,7.70
2023-03-18T08:24:45.142Z,7.73
2023-03-18T08:25:33.096Z,7.79
2023-03-18T08:26:22.754Z,7.85
2023-03-18T08:27:12.937Z,7.92
2023-03-18T08:28:02.717Z,8.03
2023-03-18T08:28:52.754Z,8.09
2023-03-18T08:29:42.696Z,8.20
2023-03-18T08:30:32.705Z,8.22
2023-03-18T08:31:22.730Z,8.25
2023-03-18T08:32:12.686Z,8.28
2023-03-18T08:33:02.751Z,8.29
2023-03-18T08:33:52.662Z,8.31
2023-03-18T08:34:42.666Z,8.34
2023-03-18T08:35:32.949Z,8.37
2023-03-18T08:36:22.629Z,8.43
2023-03-18T08:37:12.614Z,8.55
2023-03-18T08:38:02.645Z,8.71
2023-03-18T08:38:52.585Z,8.79
2023-03-18T08:39:42.584Z,8.80
2023-03-18T08:40:32.579Z,8.83
2023-03-18T08:41:22.571Z,8.85
2023-03-18T08:42:12.583Z,8.89
2023-03-18T08:43:02.574Z,9.04
2023-03-18T08:43:52.559Z,9.19
2023-03-18T08:44:42.537Z,9.32
2023-03-18T08:45:32.882Z,9.48
2023-03-18T08:46:22.555Z,9.56
2023-03-18T08:47:12.508Z,9.63
2023-03-18T08:48:02.500Z,9.67
2023-03-18T08:48:52.504Z,9.77
2023-03-18T08:49:42.485Z,9.89
2023-03-18T08:50:32.481Z,9.98
2023-03-18T08:51:22.476Z,10.01
2023-03-18T08:52:12.446Z,10.06
2023-03-18T08:53:02.455Z,10.22
2023-03-18T08:53:52.438Z,10.36
2023-03-18T08:54:42.445Z,10.42
2023-03-18T08:55:32.668Z,10.44
2023-03-18T08:56:22.415Z,10.46
2023-03-18T08:57:12.405Z,10.52
2023-03-18T08:58:02.405Z,10.58
2023-03-18T08:58:52.399Z,10.68
2023-03-18T08:59:42.365Z,10.69
2023-03-18T09:00:32.376Z,10.73
2023-03-18T09:01:22.423Z,10.80
2023-03-18T09:02:12.337Z,10.83
2023-03-18T09:03:02.418Z,10.88
2023-03-18T09:03:52.390Z,10.93
2023-03-18T09:04:42.335Z,10.99
2023-03-18T09:05:32.501Z,11.17
2023-03-18T09:06:22.308Z,11.41
2023-03-18T09:07:12.310Z,11.48
2023-03-18T09:08:02.286Z,11.49
2023-03-18T09:08:52.289Z,11.54
2023-03-18T09:09:44.039Z,11.60
2023-03-18T09:10:32.244Z,11.67
2023-03-18T09:11:22.262Z,11.75
2023-03-18T09:12:12.257Z,11.81
2023-03-18T09:13:02.245Z,11.88
2023-03-18T09:13:52.217Z,11.97
2023-03-18T09:14:42.206Z,12.03
2023-03-18T09:15:32.400Z,12.18
2023-03-18T09:16:22.226Z,12.26
2023-03-18T09:17:12.200Z,12.37
2023-03-18T09:18:11.664Z,12.46
2023-03-18T09:18:53.169Z,12.55
2023-03-18T09:19:42.153Z,12.66
2023-03-18T09:20:32.133Z,12.84
2023-03-18T09:21:22.129Z,13.06
2023-03-18T09:22:12.146Z,13.13
2023-03-18T09:23:02.128Z,13.21
2023-03-18T09:23:52.098Z,13.28
2023-03-18T09:24:42.101Z,13.32
2023-03-18T09:25:32.323Z,13.38
2023-03-18T09:26:22.107Z,13.41
2023-03-18T09:27:12.060Z,13.46
2023-03-18T09:28:02.072Z,13.48
2023-03-18T09:28:52.040Z,13.53
2023-03-18T09:29:42.047Z,13.59
2023-03-18T09:30:32.147Z,13.62
2023-03-18T09:31:22.130Z,13.69
2023-03-18T09:32:12.011Z,13.75
2023-03-18T09:33:02.054Z,13.81
2023-03-18T09:33:51.998Z,13.88
2023-03-18T09:34:41.975Z,13.91
2023-03-18T09:35:32.197Z,13.96
2023-03-18T09:36:21.976Z,13.99
2023-03-18T09:37:11.941Z,14.09
2023-03-18T09:38:01.950Z,14.17
2023-03-18T09:38:51.931Z,14.21
2023-03-18T09:39:41.934Z,14.27
2023-03-18T09:40:32.033Z,14.35
2023-03-18T09:41:21.917Z,14.39
2023-03-18T09:42:11.886Z,14.46
2023-03-18T09:43:01.889Z,14.48
2023-03-18T09:43:51.885Z,14.49
2023-03-18T09:44:41.881Z,14.59
2023-03-18T09:45:32.062Z,14.53
2023-03-18T09:46:22.045Z,14.45
2023-03-18T09:47:11.985Z,14.45
2023-03-18T09:48:01.828Z,14.53
2023-03-18T09:48:51.814Z,14.54
2023-03-18T09:49:41.808Z,14.59
2023-03-18T09:50:31.830Z,14.60
2023-03-18T09:51:21.814Z,14.61
2023-03-18T09:52:11.787Z,14.66
2023-03-18T09:53:01.775Z,14.69
2023-03-18T09:53:51.766Z,14.74
2023-03-18T09:54:41.767Z,14.75
2023-03-18T09:55:31.966Z,14.71
2023-03-18T09:56:21.749Z,14.67
2023-03-18T09:57:11.740Z,14.66
2023-03-18T09:58:01.717Z,14.66
2023-03-18T09:58:51.729Z,14.61
2023-03-18T09:59:41.702Z,14.61
2023-03-18T10:00:31.690Z,14.53
2023-03-18T10:01:21.745Z,14.49
2023-03-18T10:02:11.686Z,14.46
2023-03-18T10:03:02.003Z,14.45
2023-03-18T10:03:51.689Z,14.49
2023-03-18T10:04:41.643Z,14.56
2023-03-18T10:05:31.922Z,14.56
2023-03-18T10:06:21.626Z,14.56
2023-03-18T10:07:11.625Z,14.57
2023-03-18T10:08:01.614Z,14.60
2023-03-18T10:08:51.585Z,14.63
2023-03-18T10:09:41.577Z,14.66
2023-03-18T10:10:31.576Z,14.69
2023-03-18T10:11:21.565Z,14.71
2023-03-18T10:12:11.549Z,14.72
2023-03-18T10:13:01.573Z,14.75
2023-03-18T10:13:51.539Z,14.75
2023-03-18T10:14:41.553Z,14.79
2023-03-18T10:15:31.862Z,14.80
2023-03-18T10:16:21.581Z,14.85
2023-03-18T10:17:11.496Z,14.86
2023-03-18T10:18:01.498Z,14.91
2023-03-18T10:18:51.489Z,14.95
2023-03-18T10:19:41.477Z,15.00
2023-03-18T10:20:31.534Z,15.03
2023-03-18T10:21:21.464Z,15.03
2023-03-18T10:22:11.467Z,15.01
2023-03-18T10:23:01.435Z,15.00
2023-03-18T10:23:51.434Z,15.03
2023-03-18T10:24:41.431Z,15.03
2023-03-18T10:25:31.724Z,15.00
2023-03-18T10:26:21.447Z,15.00
2023-03-18T10:27:11.401Z,15.04
2023-03-18T10:28:01.385Z,15.05
2023-03-18T10:28:51.365Z,15.12
2023-03-18T10:29:41.369Z,15.11
2023-03-18T10:30:31.425Z,15.12
2023-03-18T10:31:21.407Z,15.15
2023-03-18T10:32:11.339Z,15.15
2023-03-18T10:33:01.388Z,15.22
2023-03-18T10:33:51.327Z,15.28
2023-03-18T10:34:41.305Z,15.27
2023-03-18T10:35:31.690Z,15.27
2023-03-18T10:36:21.306Z,15.30
2023-03-18T10:37:11.289Z,15.34
2023-03-18T10:38:01.266Z,15.34
2023-03-18T10:38:51.276Z,15.31
2023-03-18T10:39:41.288Z,15.30
2023-03-18T10:40:31.275Z,15.34
2023-03-18T10:41:23.766Z,15.33
2023-03-18T10:42:11.229Z,15.34
2023-03-18T10:43:01.284Z,15.35
2023-03-18T10:43:51.207Z,15.35
2023-03-18T10:44:41.278Z,15.37
2023-03-18T10:45:31.437Z,15.31
2023-03-18T10:46:21.327Z,15.34
2023-03-18T10:47:11.227Z,15.38
2023-03-18T10:48:01.177Z,15.44
2023-03-18T10:48:51.167Z,15.48
2023-03-18T10:49:41.165Z,15.51
2023-03-18T10:50:31.478Z,15.56
2023-03-18T10:51:21.159Z,15.64
2023-03-18T10:52:11.123Z,15.68
2023-03-18T10:53:01.110Z,15.71
2023-03-18T10:53:51.112Z,15.70
2023-03-18T10:54:41.104Z,15.64
2023-03-18T10:55:31.121Z,15.60
2023-03-18T10:56:21.162Z,15.67
2023-03-18T10:57:11.068Z,15.76
2023-03-18T10:58:01.108Z,15.80
2023-03-18T10:58:51.038Z,15.85